createdAt,value
2019-02-25T00:02:39.379Z,52.30
2019-02-25T00:07:30.525Z,51.40
2019-02-25T00:12:22.182Z,51.90
2019-02-25T00:17:12.571Z,52.70
2019-02-25T00:22:03.625Z,52.40
2019-02-25T00:26:54.547Z,53.20
2019-02-25T00:31:46.594Z,53.80
2019-02-25T00:36:38.607Z,53.70
2019-02-25T00:41:30.445Z,54.10
2019-02-25T00:46:22.158Z,54.70
2019-02-25T00:51:13.990Z,54.10
2019-02-25T00:56:05.573Z,55.10
2019-02-25T01:00:57.494Z,55.10
2019-02-25T01:05:49.048Z,54.50
2019-02-25T01:10:40.972Z,56.00
2019-02-25T01:15:32.332Z,56.50
2019-02-25T01:20:22.299Z,57.30
2019-02-25T01:25:13.035Z,58.00
2019-02-25T01:30:04.741Z,58.70
2019-02-25T01:34:56.861Z,57.80
2019-02-25T01:39:48.739Z,59.20
2019-02-25T01:44:40.460Z,59.30
2019-02-25T01:49:32.190Z,60.80
2019-02-25T01:54:24.206Z,62.50
2019-02-25T01:59:15.213Z,63.30
2019-02-25T02:04:07.104Z,64.70
2019-02-25T02:08:58.743Z,64.30
2019-02-25T02:13:49.176Z,64.20
2019-02-25T02:18:41.172Z,65.90
2019-02-25T02:23:33.075Z,64.80
2019-02-25T02:28:25.259Z,64.70
2019-02-25T02:33:16.919Z,65.70
2019-02-25T02:38:08.722Z,66.50
2019-02-25T02:43:00.346Z,66.20
2019-02-25T02:47:52.011Z,66.80
2019-02-25T02:52:44.043Z,67.50
2019-02-25T02:57:35.843Z,68.30
2019-02-25T03:02:27.694Z,67.60
2019-02-25T03:07:19.346Z,67.00
2019-02-25T03:12:11.158Z,69.70
2019-02-25T03:17:02.831Z,71.10
2019-02-25T03:21:54.491Z,70.70
2019-02-25T03:26:46.450Z,72.00
2019-02-25T03:31:38.176Z,72.70
2019-02-25T03:36:28.695Z,73.30
2019-02-25T03:41:19.111Z,74.10
2019-02-25T03:46:10.755Z,74.80
2019-02-25T08:01:13.682Z,73.60
2019-02-25T08:06:06.267Z,74.10
2019-02-25T08:10:58.086Z,65.00
2019-02-25T08:15:49.891Z,59.60
2019-02-25T08:20:41.408Z,55.50
2019-02-25T08:25:33.023Z,53.20
2019-02-25T08:30:24.418Z,50.40
2019-02-25T08:35:17.069Z,48.10
2019-02-25T08:40:08.769Z,44.90
2019-02-25T08:45:00.695Z,44.60
2019-02-25T08:49:53.247Z,43.40
2019-02-25T08:54:45.693Z,41.00
2019-02-25T08:59:37.308Z,39.50
2019-02-25T09:04:29.391Z,39.10
2019-02-25T09:09:21.636Z,36.70
2019-02-25T09:14:12.983Z,36.10
2019-02-25T09:19:04.344Z,35.40
2019-02-25T09:23:56.009Z,34.30
2019-02-25T09:28:48.676Z,33.90
2019-02-25T09:33:40.981Z,32.50
2019-02-25T09:38:33.416Z,32.80
2019-02-25T09:43:24.579Z,32.20
2019-02-25T09:48:17.553Z,31.90
2019-02-25T09:53:09.542Z,33.00
2019-02-25T09:58:04.359Z,32.80
2019-02-25T10:02:55.608Z,32.30
2019-02-25T10:07:46.823Z,32.30
2019-02-25T10:12:38.744Z,32.60
2019-02-25T10:17:30.529Z,32.00
2019-02-25T10:22:21.995Z,32.10
2019-02-25T10:27:14.020Z,32.00
2019-02-25T10:32:08.716Z,31.60
2019-02-25T10:37:00.354Z,31.50
2019-02-25T10:42:01.648Z,30.90
2019-02-25T10:46:52.196Z,31.00
2019-02-25T10:51:46.610Z,31.30
2019-02-25T10:56:38.498Z,31.10
2019-02-25T11:01:30.614Z,30.90
2019-02-25T11:06:24.480Z,30.30
2019-02-25T11:11:27.152Z,30.90
2019-02-25T11:16:21.504Z,31.00
2019-02-25T11:21:13.253Z,31.30
2019-02-25T11:26:04.745Z,31.10
2019-02-25T11:31:12.860Z,30.80
2019-02-25T11:36:22.713Z,30.90
2019-02-25T11:41:12.611Z,30.60
2019-02-25T11:46:02.712Z,30.70
2019-02-25T11:50:54.795Z,30.70
2019-02-25T11:55:46.269Z,30.70
2019-02-25T12:00:40.743Z,30.10
2019-02-25T12:05:32.072Z,30.10
2019-02-25T12:10:23.337Z,29.20
2019-02-25T12:15:15.167Z,29.40
2019-02-25T12:20:07.493Z,29.10
2019-02-25T12:24:59.233Z,29.10
2019-02-25T12:29:51.538Z,28.90
2019-02-25T12:34:44.048Z,28.10
2019-02-25T12:39:36.614Z,27.80
2019-02-25T12:44:28.248Z,27.20
2019-02-25T12:49:20.171Z,27.40
2019-02-25T12:54:13.188Z,27.40
2019-02-25T12:59:06.710Z,28.00
2019-02-25T13:03:58.445Z,28.40
2019-02-25T13:08:50.771Z,28.90
2019-02-25T13:13:43.690Z,28.80
2019-02-25T13:18:36.434Z,29.20
2019-02-25T13:23:29.320Z,29.30
2019-02-25T13:28:30.667Z,28.90
2019-02-25T13:33:23.573Z,28.40
2019-02-25T13:38:15.675Z,28.80
2019-02-25T13:43:08.513Z,28.50
2019-02-25T13:48:01.464Z,28.30
2019-02-25T13:52:53.561Z,28.20
2019-02-25T13:57:48.022Z,28.20
2019-02-25T14:02:40.240Z,28.70
2019-02-25T14:07:34.724Z,29.20
2019-02-25T14:12:26.397Z,29.20
2019-02-25T14:17:19.341Z,29.20
2019-02-25T14:22:12.041Z,28.90
2019-02-25T14:27:04.777Z,28.90
2019-02-25T14:31:57.610Z,28.60
2019-02-25T14:36:57.951Z,28.30
2019-02-25T14:42:03.915Z,28.40
2019-02-25T14:47:19.512Z,28.90
2019-02-25T14:52:05.874Z,29.80
2019-02-25T14:56:58.438Z,30.30
2019-02-25T15:01:52.333Z,30.70
2019-02-25T15:06:43.741Z,31.30
2019-02-25T15:11:35.656Z,31.90
2019-02-25T15:16:27.638Z,32.20
2019-02-25T15:21:19.873Z,32.70
2019-02-25T15:26:12.242Z,32.50
2019-02-25T15:31:16.644Z,33.00
2019-02-25T15:36:07.114Z,33.60
2019-02-25T15:41:08.954Z,33.40
2019-02-25T15:46:01.098Z,33.00
2019-02-25T15:51:00.915Z,33.20
2019-02-25T15:55:52.009Z,33.80
2019-02-25T16:00:46.121Z,34.20
2019-02-25T16:05:39.952Z,34.80
2019-02-25T16:10:31.755Z,34.90
2019-02-25T16:15:24.342Z,35.40
2019-02-25T16:20:20.724Z,35.80
2019-02-25T16:25:12.824Z,36.30
2019-02-25T16:30:06.978Z,37.20
2019-02-25T16:35:07.062Z,37.80
2019-02-25T16:40:10.418Z,38.10
2019-02-25T16:45:11.577Z,38.60
2019-02-25T16:50:03.534Z,38.90
2019-02-25T16:54:55.650Z,39.40
2019-02-25T16:59:48.106Z,39.90
2019-02-25T17:04:40.238Z,40.20
2019-02-25T17:09:40.697Z,40.70
2019-02-25T17:14:33.892Z,41.00
2019-02-25T17:19:26.042Z,41.30
2019-02-25T17:24:18.665Z,41.50
2019-02-25T17:29:15.413Z,41.90
2019-02-25T17:34:07.262Z,42.20
2019-02-25T17:38:59.514Z,42.20
2019-02-25T17:43:56.609Z,42.60
2019-02-25T17:48:49.579Z,42.60
2019-02-25T17:53:41.678Z,42.60
2019-02-25T17:58:44.134Z,42.70
2019-02-25T18:03:42.048Z,43.10
2019-02-25T18:08:40.205Z,43.70
2019-02-25T18:13:35.959Z,44.30
2019-02-25T18:18:28.942Z,44.50
2019-02-25T18:23:22.927Z,44.90
2019-02-25T18:28:22.536Z,45.60
2019-02-25T18:33:13.305Z,46.30
2019-02-25T18:38:10.336Z,46.80
2019-02-25T18:43:06.761Z,47.80
2019-02-25T18:47:57.853Z,48.70
2019-02-25T18:52:59.025Z,48.80
2019-02-25T18:57:53.215Z,49.80
2019-02-25T19:02:44.544Z,50.60
2019-02-25T19:07:36.698Z,50.20
2019-02-25T19:12:28.528Z,50.70
2019-02-25T19:17:27.254Z,50.90
2019-02-25T19:22:21.286Z,51.70
2019-02-25T19:27:14.236Z,52.40
2019-02-25T19:32:05.980Z,52.80
2019-02-25T19:37:09.562Z,53.60
2019-02-25T19:42:03.527Z,54.20
2019-02-25T19:46:57.133Z,54.70
2019-02-25T19:51:53.361Z,54.20
2019-02-25T19:56:53.686Z,54.10
2019-02-25T20:01:47.010Z,53.90
2019-02-25T20:06:44.388Z,54.10
2019-02-25T20:11:38.736Z,54.70
2019-02-25T20:16:33.316Z,54.70
2019-02-25T20:21:31.431Z,55.00
2019-02-25T20:26:27.405Z,55.40
2019-02-25T20:31:18.271Z,56.40
2019-02-25T20:36:10.063Z,57.50
2019-02-25T20:41:03.823Z,59.50
2019-02-25T20:46:05.916Z,61.10
2019-02-25T20:51:10.045Z,62.00
2019-02-25T20:56:01.260Z,64.10
2019-02-25T21:00:53.141Z,65.00
2019-02-25T21:05:45.606Z,64.90
2019-02-25T21:10:37.737Z,66.40
2019-02-25T21:15:29.418Z,68.10
2019-02-25T21:20:31.814Z,69.60
2019-02-25T21:25:31.369Z,70.70
2019-02-25T21:30:27.181Z,72.80
2019-02-25T21:35:18.728Z,73.70
2019-02-25T21:40:10.485Z,75.10
2019-02-25T21:45:03.648Z,76.20
2019-02-25T21:50:06.683Z,77.10
2019-02-25T21:55:07.378Z,78.30
2019-02-25T22:00:05.930Z,78.50
2019-02-25T22:04:56.413Z,79.80
2019-02-25T22:09:48.234Z,80.80
2019-02-25T22:14:45.413Z,81.10
2019-02-25T22:19:47.893Z,82.60
2019-02-25T22:24:41.777Z,83.80
2019-02-25T22:29:38.621Z,84.60
2019-02-25T22:34:32.868Z,85.00
2019-02-25T22:39:32.274Z,86.10
2019-02-25T22:44:29.458Z,86.80
2019-02-25T22:49:32.438Z,87.10
2019-02-25T22:54:22.846Z,87.60
2019-02-25T22:59:14.458Z,87.40
2019-02-25T23:04:06.244Z,87.30
2019-02-25T23:08:58.293Z,87.20
2019-02-25T23:13:55.321Z,87.90
2019-02-25T23:18:48.255Z,89.70
2019-02-25T23:23:41.354Z,90.60
2019-02-25T23:28:32.598Z,90.90
2019-02-25T23:33:25.845Z,91.60
2019-02-25T23:38:17.084Z,92.50
2019-02-25T23:43:18.831Z,92.90
2019-02-25T23:48:12.657Z,93.40
2019-02-25T23:53:03.618Z,93.60
2019-02-25T23:57:55.509Z,94.00
